sensor_id;sensor_type;location;lat;lon;timestamp;P1;durP1;ratioP1;P2;durP2;ratioP2
21721;SDS011;11023;48.274;7.794;2024-03-29T00:00:38;1.60;;;0.55;;
21721;SDS011;11023;48.274;7.794;2024-03-29T00:03:04;1.50;;;0.60;;
21721;SDS011;11023;48.274;7.794;2024-03-29T00:05:31;0.65;;;0.20;;
21721;SDS011;11023;48.274;7.794;2024-03-29T00:07:58;1.63;;;0.45;;
21721;SDS011;11023;48.274;7.794;2024-03-29T00:10:24;3.47;;;0.40;;
21721;SDS011;11023;48.274;7.794;2024-03-29T00:12:49;3.35;;;0.50;;
21721;SDS011;11023;48.274;7.794;2024-03-29T00:15:15;1.17;;;0.45;;
21721;SDS011;11023;48.274;7.794;2024-03-29T00:17:41;0.40;;;0.30;;
21721;SDS011;11023;48.274;7.794;2024-03-29T00:20:08;0.50;;;0.40;;
21721;SDS011;11023;48.274;7.794;2024-03-29T00:22:34;1.15;;;0.25;;
21721;SDS011;11023;48.274;7.794;2024-03-29T00:25:00;0.57;;;0.28;;
21721;SDS011;11023;48.274;7.794;2024-03-29T00:27:26;0.38;;;0.22;;
21721;SDS011;11023;48.274;7.794;2024-03-29T00:30:00;0.93;;;0.20;;
21721;SDS011;11023;48.274;7.794;2024-03-29T00:32:26;2.42;;;0.20;;
21721;SDS011;11023;48.274;7.794;2024-03-29T00:34:52;0.22;;;0.20;;
21721;SDS011;11023;48.274;7.794;2024-03-29T00:37:20;0.52;;;0.20;;
21721;SDS011;11023;48.274;7.794;2024-03-29T00:39:46;1.08;;;0.15;;
21721;SDS011;11023;48.274;7.794;2024-03-29T00:42:11;0.20;;;0.13;;
21721;SDS011;11023;48.274;7.794;2024-03-29T00:44:40;3.80;;;0.20;;
21721;SDS011;11023;48.274;7.794;2024-03-29T00:47:06;0.55;;;0.28;;
21721;SDS011;11023;48.274;7.794;2024-03-29T00:49:32;0.43;;;0.40;;
21721;SDS011;11023;48.274;7.794;2024-03-29T00:51:59;0.10;;;0.10;;
21721;SDS011;11023;48.274;7.794;2024-03-29T00:54:25;0.47;;;0.38;;
21721;SDS011;11023;48.274;7.794;2024-03-29T00:56:51;1.33;;;0.40;;
21721;SDS011;11023;48.274;7.794;2024-03-29T00:59:17;0.65;;;0.28;;
21721;SDS011;11023;48.274;7.794;2024-03-29T01:01:43;0.80;;;0.30;;
21721;SDS011;11023;48.274;7.794;2024-03-29T01:04:09;1.95;;;0.52;;
21721;SDS011;11023;48.274;7.794;2024-03-29T01:06:35;0.80;;;0.52;;
21721;SDS011;11023;48.274;7.794;2024-03-29T01:09:01;1.10;;;0.32;;
21721;SDS011;11023;48.274;7.794;2024-03-29T01:11:28;0.68;;;0.13;;
21721;SDS011;11023;48.274;7.794;2024-03-29T01:13:54;1.10;;;0.20;;
21721;SDS011;11023;48.274;7.794;2024-03-29T01:16:19;0.70;;;0.20;;
21721;SDS011;11023;48.274;7.794;2024-03-29T01:18:45;1.27;;;0.20;;
21721;SDS011;11023;48.274;7.794;2024-03-29T01:21:12;0.10;;;0.10;;
21721;SDS011;11023;48.274;7.794;2024-03-29T01:23:38;0.30;;;0.17;;
21721;SDS011;11023;48.274;7.794;2024-03-29T01:26:04;0.10;;;0.10;;
21721;SDS011;11023;48.274;7.794;2024-03-29T01:28:36;0.65;;;0.20;;
21721;SDS011;11023;48.274;7.794;2024-03-29T01:31:02;0.22;;;0.20;;
21721;SDS011;11023;48.274;7.794;2024-03-29T01:33:28;2.85;;;0.40;;
21721;SDS011;11023;48.274;7.794;2024-03-29T01:35:57;0.65;;;0.32;;
21721;SDS011;11023;48.274;7.794;2024-03-29T01:38:23;0.28;;;0.20;;
21721;SDS011;11023;48.274;7.794;2024-03-29T01:40:49;0.35;;;0.25;;
21721;SDS011;11023;48.274;7.794;2024-03-29T01:43:14;0.47;;;0.28;;
21721;SDS011;11023;48.274;7.794;2024-03-29T01:45:40;1.60;;;0.30;;
21721;SDS011;11023;48.274;7.794;2024-03-29T01:48:08;1.88;;;0.68;;
21721;SDS011;11023;48.274;7.794;2024-03-29T01:50:35;1.17;;;0.57;;
21721;SDS011;11023;48.274;7.794;2024-03-29T01:53:02;1.95;;;0.60;;
21721;SDS011;11023;48.274;7.794;2024-03-29T01:55:30;0.90;;;0.60;;
21721;SDS011;11023;48.274;7.794;2024-03-29T01:57:56;1.35;;;0.63;;
21721;SDS011;11023;48.274;7.794;2024-03-29T02:00:22;3.55;;;0.50;;
21721;SDS011;11023;48.274;7.794;2024-03-29T02:02:48;0.93;;;0.70;;
21721;SDS011;11023;48.274;7.794;2024-03-29T02:05:14;1.60;;;0.60;;
21721;SDS011;11023;48.274;7.794;2024-03-29T02:07:40;0.80;;;0.50;;
21721;SDS011;11023;48.274;7.794;2024-03-29T02:10:08;2.85;;;0.77;;
21721;SDS011;11023;48.274;7.794;2024-03-29T02:12:37;1.23;;;0.70;;
21721;SDS011;11023;48.274;7.794;2024-03-29T02:15:04;2.58;;;0.70;;
21721;SDS011;11023;48.274;7.794;2024-03-29T02:17:30;3.33;;;0.80;;
21721;SDS011;11023;48.274;7.794;2024-03-29T02:19:56;1.63;;;0.63;;
21721;SDS011;11023;48.274;7.794;2024-03-29T02:22:22;2.95;;;0.73;;
21721;SDS011;11023;48.274;7.794;2024-03-29T02:24:50;1.70;;;0.80;;
21721;SDS011;11023;48.274;7.794;2024-03-29T02:27:17;1.80;;;0.70;;
21721;SDS011;11023;48.274;7.794;2024-03-29T02:29:42;2.03;;;0.70;;
21721;SDS011;11023;48.274;7.794;2024-03-29T02:32:08;1.42;;;0.80;;
21721;SDS011;11023;48.274;7.794;2024-03-29T02:34:34;1.55;;;0.57;;
21721;SDS011;11023;48.274;7.794;2024-03-29T02:36:59;3.03;;;0.80;;
21721;SDS011;11023;48.274;7.794;2024-03-29T02:39:26;1.83;;;0.90;;
21721;SDS011;11023;48.274;7.794;2024-03-29T02:41:52;2.00;;;0.75;;
21721;SDS011;11023;48.274;7.794;2024-03-29T02:44:19;1.08;;;0.57;;
21721;SDS011;11023;48.274;7.794;2024-03-29T02:46:45;1.08;;;0.60;;
21721;SDS011;11023;48.274;7.794;2024-03-29T02:49:10;3.75;;;0.57;;
21721;SDS011;11023;48.274;7.794;2024-03-29T02:51:36;1.48;;;0.63;;
21721;SDS011;11023;48.274;7.794;2024-03-29T02:54:02;3.30;;;0.60;;
21721;SDS011;11023;48.274;7.794;2024-03-29T02:56:27;1.00;;;0.60;;
21721;SDS011;11023;48.274;7.794;2024-03-29T02:58:54;1.77;;;0.57;;
21721;SDS011;11023;48.274;7.794;2024-03-29T03:01:20;0.35;;;0.30;;
21721;SDS011;11023;48.274;7.794;2024-03-29T03:03:46;0.80;;;0.45;;
21721;SDS011;11023;48.274;7.794;2024-03-29T03:06:13;2.53;;;0.68;;
21721;SDS011;11023;48.274;7.794;2024-03-29T03:08:39;0.47;;;0.38;;
21721;SDS011;11023;48.274;7.794;2024-03-29T03:11:43;0.73;;;0.37;;
21721;SDS011;11023;48.274;7.794;2024-03-29T03:14:08;1.15;;;0.30;;
21721;SDS011;11023;48.274;7.794;2024-03-29T03:16:34;1.58;;;0.60;;
21721;SDS011;11023;48.274;7.794;2024-03-29T03:19:00;0.98;;;0.70;;
21721;SDS011;11023;48.274;7.794;2024-03-29T03:21:25;1.58;;;0.47;;
21721;SDS011;11023;48.274;7.794;2024-03-29T03:23:51;0.30;;;0.30;;
21721;SDS011;11023;48.274;7.794;2024-03-29T03:26:16;1.25;;;0.35;;
21721;SDS011;11023;48.274;7.794;2024-03-29T03:28:42;0.93;;;0.50;;
21721;SDS011;11023;48.274;7.794;2024-03-29T03:31:07;1.10;;;0.55;;
21721;SDS011;11023;48.274;7.794;2024-03-29T03:33:34;2.47;;;0.77;;
21721;SDS011;11023;48.274;7.794;2024-03-29T03:35:59;3.17;;;0.68;;
21721;SDS011;11023;48.274;7.794;2024-03-29T03:38:25;2.05;;;0.50;;
21721;SDS011;11023;48.274;7.794;2024-03-29T03:40:51;1.75;;;0.57;;
21721;SDS011;11023;48.274;7.794;2024-03-29T03:43:16;1.38;;;0.55;;
21721;SDS011;11023;48.274;7.794;2024-03-29T03:45:42;2.45;;;0.70;;
21721;SDS011;11023;48.274;7.794;2024-03-29T03:48:09;0.70;;;0.50;;
21721;SDS011;11023;48.274;7.794;2024-03-29T03:50:36;3.55;;;0.60;;
21721;SDS011;11023;48.274;7.794;2024-03-29T03:53:02;4.03;;;0.90;;
21721;SDS011;11023;48.274;7.794;2024-03-29T03:55:29;2.22;;;0.52;;
21721;SDS011;11023;48.274;7.794;2024-03-29T03:57:54;4.90;;;0.90;;
21721;SDS011;11023;48.274;7.794;2024-03-29T04:00:21;0.73;;;0.50;;
21721;SDS011;11023;48.274;7.794;2024-03-29T04:02:48;1.65;;;0.82;;
21721;SDS011;11023;48.274;7.794;2024-03-29T04:05:15;0.98;;;0.50;;
21721;SDS011;11023;48.274;7.794;2024-03-29T04:07:44;3.90;;;0.85;;
21721;SDS011;11023;48.274;7.794;2024-03-29T04:10:09;2.47;;;0.77;;
21721;SDS011;11023;48.274;7.794;2024-03-29T04:12:35;1.75;;;1.00;;
21721;SDS011;11023;48.274;7.794;2024-03-29T04:15:01;3.03;;;0.90;;
21721;SDS011;11023;48.274;7.794;2024-03-29T04:17:28;1.10;;;0.85;;
21721;SDS011;11023;48.274;7.794;2024-03-29T04:19:55;2.25;;;0.70;;
21721;SDS011;11023;48.274;7.794;2024-03-29T04:22:21;1.75;;;0.90;;
21721;SDS011;11023;48.274;7.794;2024-03-29T04:24:48;1.65;;;0.60;;
21721;SDS011;11023;48.274;7.794;2024-03-29T04:27:14;3.40;;;0.65;;
21721;SDS011;11023;48.274;7.794;2024-03-29T04:29:39;3.88;;;0.80;;
21721;SDS011;11023;48.274;7.794;2024-03-29T04:32:05;2.25;;;1.00;;
21721;SDS011;11023;48.274;7.794;2024-03-29T04:34:31;1.38;;;0.70;;
21721;SDS011;11023;48.274;7.794;2024-03-29T04:36:57;1.38;;;0.60;;
21721;SDS011;11023;48.274;7.794;2024-03-29T04:39:22;0.77;;;0.47;;
21721;SDS011;11023;48.274;7.794;2024-03-29T04:41:48;0.73;;;0.70;;
21721;SDS011;11023;48.274;7.794;2024-03-29T04:44:23;0.90;;;0.47;;
21721;SDS011;11023;48.274;7.794;2024-03-29T04:46:53;1.17;;;0.70;;
21721;SDS011;11023;48.274;7.794;2024-03-29T04:49:21;1.35;;;0.63;;
21721;SDS011;11023;48.274;7.794;2024-03-29T04:51:49;1.85;;;0.85;;
21721;SDS011;11023;48.274;7.794;2024-03-29T04:54:15;1.13;;;0.80;;
21721;SDS011;11023;48.274;7.794;2024-03-29T04:56:42;4.00;;;0.70;;
21721;SDS011;11023;48.274;7.794;2024-03-29T04:59:08;4.05;;;0.80;;
21721;SDS011;11023;48.274;7.794;2024-03-29T05:01:35;1.10;;;0.63;;
21721;SDS011;11023;48.274;7.794;2024-03-29T05:04:01;1.80;;;1.02;;
21721;SDS011;11023;48.274;7.794;2024-03-29T05:06:27;2.58;;;0.77;;
21721;SDS011;11023;48.274;7.794;2024-03-29T05:08:54;1.42;;;0.82;;
21721;SDS011;11023;48.274;7.794;2024-03-29T05:11:20;2.20;;;0.77;;
21721;SDS011;11023;48.274;7.794;2024-03-29T05:13:46;2.30;;;0.90;;
21721;SDS011;11023;48.274;7.794;2024-03-29T05:16:12;2.50;;;0.63;;
21721;SDS011;11023;48.274;7.794;2024-03-29T05:18:38;1.08;;;0.88;;
21721;SDS011;11023;48.274;7.794;2024-03-29T05:21:04;1.88;;;0.55;;
21721;SDS011;11023;48.274;7.794;2024-03-29T05:23:30;2.40;;;0.55;;
21721;SDS011;11023;48.274;7.794;2024-03-29T05:25:55;1.52;;;0.80;;
21721;SDS011;11023;48.274;7.794;2024-03-29T05:28:21;0.73;;;0.55;;
21721;SDS011;11023;48.274;7.794;2024-03-29T05:30:47;2.17;;;0.60;;
21721;SDS011;11023;48.274;7.794;2024-03-29T05:33:12;1.88;;;0.73;;
21721;SDS011;11023;48.274;7.794;2024-03-29T05:35:38;1.75;;;0.70;;
21721;SDS011;11023;48.274;7.794;2024-03-29T05:38:04;2.10;;;0.63;;
21721;SDS011;11023;48.274;7.794;2024-03-29T05:40:29;1.05;;;0.57;;
21721;SDS011;11023;48.274;7.794;2024-03-29T05:42:55;1.17;;;0.68;;
21721;SDS011;11023;48.274;7.794;2024-03-29T05:45:28;2.53;;;0.60;;
21721;SDS011;11023;48.274;7.794;2024-03-29T05:47:55;1.42;;;0.50;;
21721;SDS011;11023;48.274;7.794;2024-03-29T05:50:22;0.57;;;0.40;;
21721;SDS011;11023;48.274;7.794;2024-03-29T05:52:48;1.75;;;0.80;;
21721;SDS011;11023;48.274;7.794;2024-03-29T05:55:15;2.28;;;0.60;;
21721;SDS011;11023;48.274;7.794;2024-03-29T05:57:40;3.17;;;1.05;;
21721;SDS011;11023;48.274;7.794;2024-03-29T06:00:07;0.98;;;0.63;;
21721;SDS011;11023;48.274;7.794;2024-03-29T06:02:36;3.17;;;0.75;;
21721;SDS011;11023;48.274;7.794;2024-03-29T06:05:02;2.35;;;0.70;;
21721;SDS011;11023;48.274;7.794;2024-03-29T06:07:29;1.77;;;0.80;;
21721;SDS011;11023;48.274;7.794;2024-03-29T06:09:58;0.73;;;0.68;;
21721;SDS011;11023;48.274;7.794;2024-03-29T06:12:35;1.92;;;0.75;;
21721;SDS011;11023;48.274;7.794;2024-03-29T06:15:01;4.50;;;0.80;;
21721;SDS011;11023;48.274;7.794;2024-03-29T06:20:10;7.38;;;0.70;;
21721;SDS011;11023;48.274;7.794;2024-03-29T06:22:36;0.80;;;0.50;;
21721;SDS011;11023;48.274;7.794;2024-03-29T06:25:02;0.75;;;0.52;;
21721;SDS011;11023;48.274;7.794;2024-03-29T06:27:32;1.83;;;0.75;;
21721;SDS011;11023;48.274;7.794;2024-03-29T06:29:59;0.75;;;0.45;;
21721;SDS011;11023;48.274;7.794;2024-03-29T06:32:25;0.63;;;0.52;;
21721;SDS011;11023;48.274;7.794;2024-03-29T06:34:50;2.83;;;0.80;;
21721;SDS011;11023;48.274;7.794;2024-03-29T06:37:16;1.42;;;0.68;;
21721;SDS011;11023;48.274;7.794;2024-03-29T06:39:42;0.70;;;0.60;;
21721;SDS011;11023;48.274;7.794;2024-03-29T06:42:08;1.17;;;0.63;;
21721;SDS011;11023;48.274;7.794;2024-03-29T06:44:34;1.25;;;0.55;;
21721;SDS011;11023;48.274;7.794;2024-03-29T06:47:01;1.83;;;0.95;;
21721;SDS011;11023;48.274;7.794;2024-03-29T06:49:27;0.93;;;0.60;;
21721;SDS011;11023;48.274;7.794;2024-03-29T06:51:53;1.05;;;0.60;;
21721;SDS011;11023;48.274;7.794;2024-03-29T06:54:20;2.95;;;0.80;;
21721;SDS011;11023;48.274;7.794;2024-03-29T06:56:51;2.47;;;1.23;;
21721;SDS011;11023;48.274;7.794;2024-03-29T06:59:17;4.13;;;1.17;;
21721;SDS011;11023;48.274;7.794;2024-03-29T07:01:43;2.20;;;1.00;;
21721;SDS011;11023;48.274;7.794;2024-03-29T07:04:08;1.58;;;0.90;;
21721;SDS011;11023;48.274;7.794;2024-03-29T07:06:34;1.90;;;0.95;;
21721;SDS011;11023;48.274;7.794;2024-03-29T07:09:02;1.73;;;0.80;;
21721;SDS011;11023;48.274;7.794;2024-03-29T07:11:28;1.60;;;0.60;;
21721;SDS011;11023;48.274;7.794;2024-03-29T07:13:54;3.67;;;1.00;;
21721;SDS011;11023;48.274;7.794;2024-03-29T07:16:20;1.20;;;0.90;;
21721;SDS011;11023;48.274;7.794;2024-03-29T07:18:46;2.17;;;1.20;;
21721;SDS011;11023;48.274;7.794;2024-03-29T07:21:12;1.67;;;0.90;;
21721;SDS011;11023;48.274;7.794;2024-03-29T07:23:37;1.65;;;0.82;;
21721;SDS011;11023;48.274;7.794;2024-03-29T07:26:04;3.45;;;0.93;;
21721;SDS011;11023;48.274;7.794;2024-03-29T07:28:30;4.45;;;0.68;;
21721;SDS011;11023;48.274;7.794;2024-03-29T07:30:56;1.27;;;0.60;;
21721;SDS011;11023;48.274;7.794;2024-03-29T07:33:22;1.65;;;0.70;;
21721;SDS011;11023;48.274;7.794;2024-03-29T07:35:54;1.02;;;0.63;;
21721;SDS011;11023;48.274;7.794;2024-03-29T07:38:21;2.88;;;0.50;;
21721;SDS011;11023;48.274;7.794;2024-03-29T07:40:48;0.75;;;0.50;;
21721;SDS011;11023;48.274;7.794;2024-03-29T07:43:14;0.82;;;0.30;;
21721;SDS011;11023;48.274;7.794;2024-03-29T07:45:41;0.98;;;0.60;;
21721;SDS011;11023;48.274;7.794;2024-03-29T07:48:10;1.17;;;0.40;;
21721;SDS011;11023;48.274;7.794;2024-03-29T07:50:41;1.55;;;0.60;;
21721;SDS011;11023;48.274;7.794;2024-03-29T07:53:07;0.75;;;0.50;;
21721;SDS011;11023;48.274;7.794;2024-03-29T07:55:42;0.75;;;0.40;;
21721;SDS011;11023;48.274;7.794;2024-03-29T07:58:08;1.35;;;0.60;;
21721;SDS011;11023;48.274;7.794;2024-03-29T08:00:35;2.17;;;0.70;;
21721;SDS011;11023;48.274;7.794;2024-03-29T08:03:04;3.05;;;0.50;;
21721;SDS011;11023;48.274;7.794;2024-03-29T08:05:29;1.55;;;1.33;;
21721;SDS011;11023;48.274;7.794;2024-03-29T08:07:55;1.92;;;0.98;;
21721;SDS011;11023;48.274;7.794;2024-03-29T08:10:21;2.38;;;0.98;;
21721;SDS011;11023;48.274;7.794;2024-03-29T08:12:46;1.00;;;0.90;;
21721;SDS011;11023;48.274;7.794;2024-03-29T08:15:12;2.33;;;0.98;;
21721;SDS011;11023;48.274;7.794;2024-03-29T08:17:38;2.45;;;1.20;;
21721;SDS011;11023;48.274;7.794;2024-03-29T08:20:04;3.55;;;1.60;;
21721;SDS011;11023;48.274;7.794;2024-03-29T08:22:30;3.38;;;1.52;;
21721;SDS011;11023;48.274;7.794;2024-03-29T08:24:58;4.22;;;2.10;;
21721;SDS011;11023;48.274;7.794;2024-03-29T08:27:25;7.30;;;2.00;;
21721;SDS011;11023;48.274;7.794;2024-03-29T08:29:51;1.75;;;0.82;;
21721;SDS011;11023;48.274;7.794;2024-03-29T08:32:17;1.00;;;0.60;;
21721;SDS011;11023;48.274;7.794;2024-03-29T08:34:42;2.63;;;0.57;;
21721;SDS011;11023;48.274;7.794;2024-03-29T08:37:08;0.47;;;0.30;;
21721;SDS011;11023;48.274;7.794;2024-03-29T08:39:34;0.40;;;0.40;;
21721;SDS011;11023;48.274;7.794;2024-03-29T08:42:01;0.73;;;0.47;;
21721;SDS011;11023;48.274;7.794;2024-03-29T08:44:33;0.82;;;0.45;;
21721;SDS011;11023;48.274;7.794;2024-03-29T08:46:59;0.80;;;0.50;;
21721;SDS011;11023;48.274;7.794;2024-03-29T08:49:28;1.85;;;0.60;;
21721;SDS011;11023;48.274;7.794;2024-03-29T08:51:56;0.55;;;0.30;;
21721;SDS011;11023;48.274;7.794;2024-03-29T08:54:24;0.77;;;0.30;;
21721;SDS011;11023;48.274;7.794;2024-03-29T08:56:50;0.40;;;0.40;;
21721;SDS011;11023;48.274;7.794;2024-03-29T08:59:15;2.10;;;0.45;;
21721;SDS011;11023;48.274;7.794;2024-03-29T09:01:41;0.77;;;0.40;;
21721;SDS011;11023;48.274;7.794;2024-03-29T09:04:09;1.98;;;0.70;;
21721;SDS011;11023;48.274;7.794;2024-03-29T09:06:39;4.22;;;0.50;;
21721;SDS011;11023;48.274;7.794;2024-03-29T09:09:05;2.28;;;0.50;;
21721;SDS011;11023;48.274;7.794;2024-03-29T09:11:32;1.85;;;0.43;;
21721;SDS011;11023;48.274;7.794;2024-03-29T09:13:58;0.90;;;0.40;;
21721;SDS011;11023;48.274;7.794;2024-03-29T09:16:24;1.85;;;0.40;;
21721;SDS011;11023;48.274;7.794;2024-03-29T09:18:50;0.50;;;0.50;;
21721;SDS011;11023;48.274;7.794;2024-03-29T09:21:16;0.60;;;0.30;;
21721;SDS011;11023;48.274;7.794;2024-03-29T09:23:42;0.40;;;0.28;;
21721;SDS011;11023;48.274;7.794;2024-03-29T09:26:07;0.50;;;0.40;;
21721;SDS011;11023;48.274;7.794;2024-03-29T09:28:33;1.02;;;0.47;;
21721;SDS011;11023;48.274;7.794;2024-03-29T09:31:02;0.40;;;0.28;;
21721;SDS011;11023;48.274;7.794;2024-03-29T09:33:28;1.00;;;0.40;;
21721;SDS011;11023;48.274;7.794;2024-03-29T09:35:54;1.23;;;0.40;;
21721;SDS011;11023;48.274;7.794;2024-03-29T09:38:20;1.13;;;0.45;;
21721;SDS011;11023;48.274;7.794;2024-03-29T09:40:46;1.27;;;0.40;;
21721;SDS011;11023;48.274;7.794;2024-03-29T09:43:14;2.05;;;0.20;;
21721;SDS011;11023;48.274;7.794;2024-03-29T09:45:41;2.42;;;0.47;;
21721;SDS011;11023;48.274;7.794;2024-03-29T09:48:08;3.95;;;0.82;;
21721;SDS011;11023;48.274;7.794;2024-03-29T09:50:34;1.27;;;0.77;;
21721;SDS011;11023;48.274;7.794;2024-03-29T09:53:01;2.40;;;0.88;;
21721;SDS011;11023;48.274;7.794;2024-03-29T09:55:28;1.92;;;0.70;;
21721;SDS011;11023;48.274;7.794;2024-03-29T09:57:54;2.58;;;1.17;;
21721;SDS011;11023;48.274;7.794;2024-03-29T10:00:20;2.63;;;1.27;;
21721;SDS011;11023;48.274;7.794;2024-03-29T10:02:46;3.42;;;1.70;;
21721;SDS011;11023;48.274;7.794;2024-03-29T10:05:18;4.38;;;2.15;;
21721;SDS011;11023;48.274;7.794;2024-03-29T10:07:45;3.15;;;1.38;;
21721;SDS011;11023;48.274;7.794;2024-03-29T10:10:12;2.22;;;1.27;;
21721;SDS011;11023;48.274;7.794;2024-03-29T10:12:37;3.25;;;1.08;;
21721;SDS011;11023;48.274;7.794;2024-03-29T10:15:04;1.90;;;1.23;;
21721;SDS011;11023;48.274;7.794;2024-03-29T10:17:33;4.90;;;1.95;;
21721;SDS011;11023;48.274;7.794;2024-03-29T10:20:00;3.58;;;2.03;;
21721;SDS011;11023;48.274;7.794;2024-03-29T10:22:28;4.50;;;2.22;;
21721;SDS011;11023;48.274;7.794;2024-03-29T10:24:56;2.97;;;1.40;;
21721;SDS011;11023;48.274;7.794;2024-03-29T10:27:26;2.47;;;1.67;;
21721;SDS011;11023;48.274;7.794;2024-03-29T10:29:55;2.03;;;1.42;;
21721;SDS011;11023;48.274;7.794;2024-03-29T10:32:21;4.70;;;1.48;;
21721;SDS011;11023;48.274;7.794;2024-03-29T10:34:48;2.53;;;1.40;;
21721;SDS011;11023;48.274;7.794;2024-03-29T10:37:14;3.33;;;2.03;;
21721;SDS011;11023;48.274;7.794;2024-03-29T10:39:44;2.92;;;1.73;;
21721;SDS011;11023;48.274;7.794;2024-03-29T10:42:11;10.23;;;1.95;;
21721;SDS011;11023;48.274;7.794;2024-03-29T10:44:38;3.80;;;1.80;;
21721;SDS011;11023;48.274;7.794;2024-03-29T10:47:05;4.88;;;1.35;;
21721;SDS011;11023;48.274;7.794;2024-03-29T10:49:33;2.60;;;1.65;;
21721;SDS011;11023;48.274;7.794;2024-03-29T10:52:00;2.58;;;1.42;;
21721;SDS011;11023;48.274;7.794;2024-03-29T10:54:27;5.75;;;1.63;;
21721;SDS011;11023;48.274;7.794;2024-03-29T10:57:02;3.80;;;1.30;;
21721;SDS011;11023;48.274;7.794;2024-03-29T10:59:40;2.28;;;1.30;;
21721;SDS011;11023;48.274;7.794;2024-03-29T11:03:09;3.53;;;1.30;;
21721;SDS011;11023;48.274;7.794;2024-03-29T11:05:16;2.42;;;1.60;;
21721;SDS011;11023;48.274;7.794;2024-03-29T11:07:43;2.45;;;1.33;;
21721;SDS011;11023;48.274;7.794;2024-03-29T11:10:15;2.58;;;1.48;;
21721;SDS011;11023;48.274;7.794;2024-03-29T11:12:59;3.05;;;1.27;;
21721;SDS011;11023;48.274;7.794;2024-03-29T11:15:30;2.53;;;1.50;;
21721;SDS011;11023;48.274;7.794;2024-03-29T11:17:58;2.25;;;1.40;;
21721;SDS011;11023;48.274;7.794;2024-03-29T11:20:25;2.20;;;1.30;;
21721;SDS011;11023;48.274;7.794;2024-03-29T11:23:12;3.30;;;1.20;;
21721;SDS011;11023;48.274;7.794;2024-03-29T11:28:22;2.38;;;1.35;;
21721;SDS011;11023;48.274;7.794;2024-03-29T11:30:51;5.32;;;1.50;;
21721;SDS011;11023;48.274;7.794;2024-03-29T11:33:52;2.08;;;1.20;;
21721;SDS011;11023;48.274;7.794;2024-03-29T11:38:41;2.35;;;1.05;;
21721;SDS011;11023;48.274;7.794;2024-03-29T11:43:45;3.05;;;1.52;;
21721;SDS011;11023;48.274;7.794;2024-03-29T11:46:12;1.75;;;1.33;;
21721;SDS011;11023;48.274;7.794;2024-03-29T11:48:39;2.63;;;1.50;;
21721;SDS011;11023;48.274;7.794;2024-03-29T11:51:10;2.10;;;1.50;;
21721;SDS011;11023;48.274;7.794;2024-03-29T11:53:39;3.22;;;1.98;;
21721;SDS011;11023;48.274;7.794;2024-03-29T11:56:05;3.72;;;1.70;;
21721;SDS011;11023;48.274;7.794;2024-03-29T11:58:32;3.47;;;1.30;;
21721;SDS011;11023;48.274;7.794;2024-03-29T12:00:59;2.67;;;1.40;;
21721;SDS011;11023;48.274;7.794;2024-03-29T12:03:26;6.05;;;2.40;;
21721;SDS011;11023;48.274;7.794;2024-03-29T12:05:53;4.93;;;2.05;;
21721;SDS011;11023;48.274;7.794;2024-03-29T12:08:23;3.83;;;2.10;;
21721;SDS011;11023;48.274;7.794;2024-03-29T12:10:50;5.93;;;1.92;;
21721;SDS011;11023;48.274;7.794;2024-03-29T12:13:16;4.45;;;1.90;;
21721;SDS011;11023;48.274;7.794;2024-03-29T12:15:43;6.75;;;2.20;;
21721;SDS011;11023;48.274;7.794;2024-03-29T12:18:09;2.67;;;1.58;;
21721;SDS011;11023;48.274;7.794;2024-03-29T12:20:36;2.47;;;1.50;;
21721;SDS011;11023;48.274;7.794;2024-03-29T12:23:03;4.10;;;1.70;;
21721;SDS011;11023;48.274;7.794;2024-03-29T12:25:31;2.60;;;1.77;;
21721;SDS011;11023;48.274;7.794;2024-03-29T12:27:58;3.67;;;1.42;;
21721;SDS011;11023;48.274;7.794;2024-03-29T12:30:24;6.20;;;1.48;;
21721;SDS011;11023;48.274;7.794;2024-03-29T12:33:03;3.00;;;1.30;;
21721;SDS011;11023;48.274;7.794;2024-03-29T12:35:34;2.88;;;1.52;;
21721;SDS011;11023;48.274;7.794;2024-03-29T12:38:00;3.92;;;1.70;;
21721;SDS011;11023;48.274;7.794;2024-03-29T12:40:28;2.00;;;1.42;;
21721;SDS011;11023;48.274;7.794;2024-03-29T12:43:01;4.53;;;1.85;;
21721;SDS011;11023;48.274;7.794;2024-03-29T12:45:29;4.15;;;1.83;;
21721;SDS011;11023;48.274;7.794;2024-03-29T12:47:55;2.75;;;1.60;;
21721;SDS011;11023;48.274;7.794;2024-03-29T12:50:28;4.28;;;1.75;;
21721;SDS011;11023;48.274;7.794;2024-03-29T12:52:57;3.15;;;1.52;;
21721;SDS011;11023;48.274;7.794;2024-03-29T12:55:24;3.03;;;1.60;;
21721;SDS011;11023;48.274;7.794;2024-03-29T12:57:55;2.13;;;1.35;;
21721;SDS011;11023;48.274;7.794;2024-03-29T13:00:21;2.97;;;1.40;;
21721;SDS011;11023;48.274;7.794;2024-03-29T13:02:47;1.80;;;1.50;;
21721;SDS011;11023;48.274;7.794;2024-03-29T13:05:13;3.30;;;1.48;;
21721;SDS011;11023;48.274;7.794;2024-03-29T13:07:39;3.00;;;1.42;;
21721;SDS011;11023;48.274;7.794;2024-03-29T13:10:05;7.88;;;1.70;;
21721;SDS011;11023;48.274;7.794;2024-03-29T13:12:37;3.53;;;1.50;;
21721;SDS011;11023;48.274;7.794;2024-03-29T13:15:18;3.90;;;1.50;;
21721;SDS011;11023;48.274;7.794;2024-03-29T13:17:45;2.95;;;1.60;;
21721;SDS011;11023;48.274;7.794;2024-03-29T13:20:12;4.50;;;1.90;;
21721;SDS011;11023;48.274;7.794;2024-03-29T13:22:40;4.50;;;2.10;;
21721;SDS011;11023;48.274;7.794;2024-03-29T13:25:11;2.17;;;1.60;;
21721;SDS011;11023;48.274;7.794;2024-03-29T13:27:38;2.33;;;1.77;;
21721;SDS011;11023;48.274;7.794;2024-03-29T13:30:05;3.25;;;1.95;;
21721;SDS011;11023;48.274;7.794;2024-03-29T13:32:32;3.30;;;1.85;;
21721;SDS011;11023;48.274;7.794;2024-03-29T13:34:59;2.30;;;1.60;;
21721;SDS011;11023;48.274;7.794;2024-03-29T13:37:25;2.22;;;1.67;;
21721;SDS011;11023;48.274;7.794;2024-03-29T13:39:52;2.92;;;1.73;;
21721;SDS011;11023;48.274;7.794;2024-03-29T13:42:21;2.45;;;1.67;;
21721;SDS011;11023;48.274;7.794;2024-03-29T13:44:53;3.20;;;1.70;;
21721;SDS011;11023;48.274;7.794;2024-03-29T13:47:19;2.90;;;1.52;;
21721;SDS011;11023;48.274;7.794;2024-03-29T13:49:45;2.58;;;1.75;;
21721;SDS011;11023;48.274;7.794;2024-03-29T13:52:14;3.67;;;1.70;;
21721;SDS011;11023;48.274;7.794;2024-03-29T13:54:43;2.78;;;1.70;;
21721;SDS011;11023;48.274;7.794;2024-03-29T13:57:11;3.17;;;1.83;;
21721;SDS011;11023;48.274;7.794;2024-03-29T13:59:41;4.13;;;2.13;;
21721;SDS011;11023;48.274;7.794;2024-03-29T14:02:13;3.80;;;2.08;;
21721;SDS011;11023;48.274;7.794;2024-03-29T14:04:44;2.78;;;1.77;;
21721;SDS011;11023;48.274;7.794;2024-03-29T14:07:11;3.55;;;2.03;;
21721;SDS011;11023;48.274;7.794;2024-03-29T14:09:38;3.40;;;1.80;;
21721;SDS011;11023;48.274;7.794;2024-03-29T14:12:08;5.97;;;1.95;;
21721;SDS011;11023;48.274;7.794;2024-03-29T14:14:34;2.20;;;1.50;;
21721;SDS011;11023;48.274;7.794;2024-03-29T14:17:00;4.25;;;1.65;;
21721;SDS011;11023;48.274;7.794;2024-03-29T14:19:29;2.33;;;1.80;;
21721;SDS011;11023;48.274;7.794;2024-03-29T14:21:56;6.95;;;1.80;;
21721;SDS011;11023;48.274;7.794;2024-03-29T14:24:22;2.70;;;1.77;;
21721;SDS011;11023;48.274;7.794;2024-03-29T14:26:50;4.05;;;1.98;;
21721;SDS011;11023;48.274;7.794;2024-03-29T14:29:17;4.03;;;2.17;;
21721;SDS011;11023;48.274;7.794;2024-03-29T14:31:46;3.22;;;1.60;;
21721;SDS011;11023;48.274;7.794;2024-03-29T14:34:12;6.47;;;1.55;;
21721;SDS011;11023;48.274;7.794;2024-03-29T14:36:38;3.47;;;1.55;;
21721;SDS011;11023;48.274;7.794;2024-03-29T14:39:03;3.58;;;1.45;;
21721;SDS011;11023;48.274;7.794;2024-03-29T14:41:29;2.70;;;1.50;;
21721;SDS011;11023;48.274;7.794;2024-03-29T14:43:56;2.92;;;1.27;;
21721;SDS011;11023;48.274;7.794;2024-03-29T14:46:22;1.30;;;1.17;;
21721;SDS011;11023;48.274;7.794;2024-03-29T14:48:48;1.30;;;1.15;;
21721;SDS011;11023;48.274;7.794;2024-03-29T14:51:13;2.85;;;1.30;;
21721;SDS011;11023;48.274;7.794;2024-03-29T14:53:40;3.00;;;1.70;;
21721;SDS011;11023;48.274;7.794;2024-03-29T14:56:12;2.13;;;1.50;;
21721;SDS011;11023;48.274;7.794;2024-03-29T14:58:38;3.53;;;1.17;;